< < Back
Terminal Aerodrome Forecast


Current Version              Previous Versions:   1  2  3  4  5  6  7  8  9  

Terminal Aerodrome Forecast

832
FTUS42 KFFC 290531
TAFCSG
TAF
KCSG 290531Z 2906/3006 VRB03KT P6SM BKN100
     FM291000 VRB03KT P6SM SCT120 BKN250
     FM291400 33006KT P6SM SCT050 PROB30 2920/2924 6SM -TSRA
      BKN040CB
     FM300100 02004KT P6SM SCT100 BKN250=



Latest METAR

017
SAUS70 KWBC 290700
MTRCSG
METAR KCSG 290651Z AUTO 00000KT 10SM CLR 26/22 A2995 RMK AO2 SLP136
T02610222


USA.gov is the U.S. government's official web portal to all federal, state and local government web resources and services.